Time;durP1;ratioP1;P1;durP2;ratioP2;P2;SDS_P1;SDS_P2;PMS_P1;PMS_P2;Temp;Humidity;BMP_temperature;BMP_pressure;BME280_temperature;BME280_humidity;BME280_pressure;Samples;Min_cycle;Max_cycle;Signal;HPM_P1;HPM_P2
2022/05/04 00:01:58;;;;;;;10.20;2.75;;;8.60;99.90;;;;;;5074838;28;20064;-62
2022/05/04 00:04:24;;;;;;;6.32;2.70;;;8.50;99.90;;;;;;5075328;28;20048;-62
2022/05/04 00:06:51;;;;;;;4.25;2.42;;;8.50;99.90;;;;;;5056758;28;20060;-61
2022/05/04 00:09:18;;;;;;;8.38;2.60;;;8.50;99.90;;;;;;5057235;28;20541;-61
2022/05/04 00:11:45;;;;;;;7.45;2.75;;;8.50;99.90;;;;;;5073958;28;20401;-62
2022/05/04 00:14:13;;;;;;;10.07;3.10;;;8.50;99.90;;;;;;5055290;28;20385;-62
2022/05/04 00:16:40;;;;;;;10.02;3.08;;;8.60;99.90;;;;;;5056888;28;20056;-60
2022/05/04 00:19:07;;;;;;;10.80;2.92;;;8.50;99.90;;;;;;5074942;28;20076;-63
2022/05/04 00:21:34;;;;;;;10.23;3.28;;;8.50;99.90;;;;;;5074036;28;20126;-62
2022/05/04 00:24:01;;;;;;;8.57;3.28;;;8.50;99.90;;;;;;5074300;28;20079;-63
2022/05/04 00:26:27;;;;;;;5.18;2.75;;;8.50;99.90;;;;;;5056959;28;20052;-63
2022/05/04 00:28:54;;;;;;;9.20;3.15;;;8.40;99.90;;;;;;5056021;28;20056;-63
2022/05/04 00:31:22;;;;;;;7.78;2.70;;;8.50;99.90;;;;;;5056653;28;20060;-63
2022/05/04 00:33:49;;;;;;;6.70;3.10;;;8.50;99.90;;;;;;5056524;28;20048;-62
2022/05/04 00:36:16;;;;;;;10.18;3.63;;;8.40;99.90;;;;;;5073813;28;20052;-60
2022/05/04 00:38:43;;;;;;;7.25;3.15;;;8.50;99.90;;;;;;5074441;28;20086;-62
2022/05/04 00:41:10;;;;;;;10.30;3.17;;;8.40;99.90;;;;;;5055758;28;20052;-62
2022/05/04 00:43:37;;;;;;;6.85;2.40;;;8.40;99.90;;;;;;5056136;28;20554;-62
2022/05/04 00:46:04;;;;;;;9.52;3.00;;;8.40;99.90;;;;;;5074166;28;20542;-62
2022/05/04 00:48:32;;;;;;;8.90;2.88;;;8.40;99.90;;;;;;5055694;28;20149;-62
2022/05/04 00:50:59;;;;;;;8.52;2.50;;;8.40;99.90;;;;;;5056242;28;20052;-62
2022/05/04 00:53:26;;;;;;;8.73;2.53;;;8.50;99.90;;;;;;5074173;28;20052;-62
2022/05/04 00:55:56;;;;;;;6.93;2.00;;;8.40;99.90;;;;;;5055593;28;20133;-62
2022/05/04 01:01:07;;;;;;;10.25;3.42;;;8.40;99.90;;;;;;5073822;28;20109;-62
2022/05/04 01:03:37;;;;;;;7.82;2.47;;;8.40;99.90;;;;;;5073105;28;20105;-62
2022/05/04 01:06:04;;;;;;;5.90;2.38;;;8.40;99.90;;;;;;5056170;28;20063;-62
2022/05/04 01:08:31;;;;;;;8.18;2.75;;;8.40;99.90;;;;;;5073797;28;20492;-62
2022/05/04 01:10:57;;;;;;;11.68;2.75;;;8.40;99.90;;;;;;5055658;28;20100;-62
2022/05/04 01:13:25;;;;;;;8.85;3.15;;;8.40;99.90;;;;;;5052772;28;20049;-62
2022/05/04 01:15:52;;;;;;;11.80;3.28;;;8.40;99.90;;;;;;5055609;28;20060;-62
2022/05/04 01:18:19;;;;;;;6.60;2.33;;;8.40;99.90;;;;;;5055481;28;20118;-62
2022/05/04 01:20:47;;;;;;;8.60;2.83;;;8.30;99.90;;;;;;5073823;28;20052;-62
2022/05/04 01:23:16;;;;;;;15.02;3.30;;;8.40;99.90;;;;;;5055552;28;20185;-62
2022/05/04 01:25:44;;;;;;;5.80;2.38;;;8.40;99.90;;;;;;5050995;28;20052;-62
2022/05/04 01:28:11;;;;;;;11.45;3.00;;;8.30;99.90;;;;;;5035730;28;20061;-62
2022/05/04 01:30:39;;;;;;;13.75;2.97;;;8.40;99.90;;;;;;5052951;28;20049;-62
2022/05/04 01:33:06;;;;;;;10.75;2.53;;;8.40;99.90;;;;;;5035305;28;20053;-62
2022/05/04 01:35:33;;;;;;;8.98;2.60;;;8.50;99.90;;;;;;5035849;28;20059;-63
2022/05/04 01:38:00;;;;;;;15.80;3.55;;;8.40;99.90;;;;;;5034785;28;20590;-63
2022/05/04 01:40:28;;;;;;;5.70;2.85;;;8.40;99.90;;;;;;5063877;28;20052;-62
2022/05/04 01:42:55;;;;;;;7.18;2.75;;;8.40;99.90;;;;;;5073054;28;20114;-63
2022/05/04 01:45:22;;;;;;;10.30;2.92;;;8.40;99.90;;;;;;5072644;28;20114;-63
2022/05/04 01:47:50;;;;;;;8.40;2.65;;;8.40;99.90;;;;;;5055294;28;20055;-63
2022/05/04 01:50:17;;;;;;;10.38;3.15;;;8.50;99.90;;;;;;5073244;28;20052;-61
2022/05/04 01:52:44;;;;;;;16.13;3.42;;;8.50;99.90;;;;;;5054569;28;20159;-62
2022/05/04 01:55:11;;;;;;;10.48;2.72;;;8.50;99.90;;;;;;5072947;28;20454;-62
2022/05/04 01:57:40;;;;;;;12.23;2.70;;;8.50;99.90;;;;;;5073034;28;20393;-62
2022/05/04 02:00:08;;;;;;;6.40;2.80;;;8.40;99.90;;;;;;5054763;28;20114;-63
2022/05/04 02:02:35;;;;;;;8.20;3.22;;;8.50;99.90;;;;;;5054764;28;20500;-62
2022/05/04 02:05:04;;;;;;;6.80;2.72;;;8.40;99.90;;;;;;5055159;28;20553;-63
2022/05/04 02:07:31;;;;;;;8.65;2.80;;;8.40;99.90;;;;;;5054641;28;20102;-62
2022/05/04 02:09:58;;;;;;;9.18;3.42;;;8.40;99.90;;;;;;5054873;28;20458;-62
2022/05/04 02:12:27;;;;;;;5.68;1.98;;;8.40;99.90;;;;;;5072604;28;20052;-61
2022/05/04 02:14:56;;;;;;;4.53;1.90;;;8.40;99.90;;;;;;5054367;28;20059;-63
2022/05/04 02:17:23;;;;;;;8.45;2.15;;;8.40;99.90;;;;;;5072722;28;20054;-62
2022/05/04 02:19:49;;;;;;;6.43;2.22;;;8.40;99.90;;;;;;5054385;28;20049;-63
2022/05/04 02:22:16;;;;;;;8.88;2.28;;;8.40;99.90;;;;;;5072684;28;20418;-63
2022/05/04 02:24:43;;;;;;;11.93;2.95;;;8.40;99.90;;;;;;5072520;28;20044;-62
2022/05/04 02:27:10;;;;;;;8.93;2.25;;;8.40;99.90;;;;;;5072068;28;20049;-62
2022/05/04 02:29:37;;;;;;;7.95;2.15;;;8.40;99.90;;;;;;5055152;28;20118;-62
2022/05/04 02:32:06;;;;;;;6.70;2.55;;;8.30;99.90;;;;;;5054801;28;20106;-62
2022/05/04 02:34:33;;;;;;;7.72;2.08;;;8.40;99.90;;;;;;5072181;28;20098;-63
2022/05/04 02:39:44;;;;;;;7.20;2.70;;;8.40;99.90;;;;;;5076474;28;20156;-63
2022/05/04 02:42:11;;;;;;;9.93;2.42;;;8.40;99.90;;;;;;5058297;28;20057;-63
2022/05/04 02:44:37;;;;;;;5.82;2.45;;;8.40;99.90;;;;;;5058803;28;20047;-62
2022/05/04 02:47:06;;;;;;;6.93;2.30;;;8.40;99.90;;;;;;5058709;28;20075;-63
2022/05/04 02:49:33;;;;;;;6.47;2.10;;;8.40;99.90;;;;;;5075825;28;20056;-63
2022/05/04 02:52:00;;;;;;;7.43;2.30;;;8.30;99.90;;;;;;5058374;28;20107;-63
2022/05/04 02:54:26;;;;;;;11.45;2.45;;;8.30;99.90;;;;;;5076097;28;20044;-63
2022/05/04 02:56:53;;;;;;;7.88;2.42;;;8.40;99.90;;;;;;5058088;28;20056;-63
2022/05/04 02:59:20;;;;;;;7.88;2.17;;;8.30;99.90;;;;;;5076376;28;20044;-62
2022/05/04 03:04:34;;;;;;;7.88;2.70;;;8.30;99.90;;;;;;5076156;28;20053;-61
2022/05/04 03:07:01;;;;;;;13.13;3.03;;;8.40;99.90;;;;;;5076180;28;20048;-63
2022/05/04 03:09:28;;;;;;;9.30;2.83;;;8.40;99.90;;;;;;5057489;28;20080;-62
2022/05/04 03:11:57;;;;;;;7.13;2.20;;;8.30;99.90;;;;;;5058371;28;20090;-62
2022/05/04 03:14:26;;;;;;;7.45;2.28;;;8.30;99.90;;;;;;5058133;28;20048;-62
2022/05/04 03:16:54;;;;;;;7.18;2.53;;;8.30;99.90;;;;;;5075445;28;20060;-63
2022/05/04 03:19:21;;;;;;;11.60;2.70;;;8.30;99.90;;;;;;5058262;28;20106;-63
2022/05/04 03:21:49;;;;;;;7.75;2.35;;;8.30;99.90;;;;;;5075875;28;20492;-61
2022/05/04 03:24:16;;;;;;;5.38;1.83;;;8.30;99.90;;;;;;5075072;28;20041;-62
2022/05/04 03:26:44;;;;;;;7.63;2.17;;;8.30;99.90;;;;;;5075860;28;20048;-62
2022/05/04 03:29:11;;;;;;;6.63;2.35;;;8.30;99.90;;;;;;5075840;28;20083;-62
2022/05/04 03:31:39;;;;;;;11.90;2.67;;;8.30;99.90;;;;;;5075047;28;20495;-63
2022/05/04 03:34:06;;;;;;;10.60;2.95;;;8.30;99.90;;;;;;5075729;28;20086;-61
2022/05/04 03:36:35;;;;;;;13.98;3.03;;;8.40;99.90;;;;;;5075689;28;20492;-63
2022/05/04 03:39:04;;;;;;;9.00;2.58;;;8.30;99.90;;;;;;5053427;28;20053;-61
2022/05/04 03:41:31;;;;;;;7.68;2.40;;;8.30;99.90;;;;;;5056150;28;20123;-61
2022/05/04 03:43:58;;;;;;;8.65;2.35;;;8.40;99.90;;;;;;5053669;28;20489;-62
2022/05/04 03:46:26;;;;;;;12.70;2.53;;;8.50;99.90;;;;;;5035724;28;20079;-62
2022/05/04 03:48:54;;;;;;;6.90;2.67;;;8.60;99.90;;;;;;5053484;28;20073;-63
2022/05/04 03:51:22;;;;;;;8.48;2.60;;;8.70;99.90;;;;;;5052707;28;20153;-63
2022/05/04 03:53:50;;;;;;;9.13;3.13;;;8.70;99.90;;;;;;5054207;28;20064;-62
2022/05/04 03:56:19;;;;;;;7.00;2.50;;;8.80;99.90;;;;;;5054063;28;20112;-63
2022/05/04 03:58:47;;;;;;;6.72;2.30;;;8.80;99.90;;;;;;5052498;28;20095;-62
2022/05/04 04:01:15;;;;;;;7.97;2.97;;;8.90;99.90;;;;;;5053418;28;20463;-62
2022/05/04 04:03:42;;;;;;;7.25;2.30;;;8.80;99.90;;;;;;5053733;28;20052;-61
2022/05/04 04:06:08;;;;;;;6.22;2.17;;;8.60;99.90;;;;;;5034923;28;20049;-62
2022/05/04 04:08:35;;;;;;;11.45;2.78;;;8.60;99.90;;;;;;5055911;28;20044;-61
2022/05/04 04:11:03;;;;;;;5.90;2.40;;;8.60;99.90;;;;;;5053234;28;20111;-62
2022/05/04 04:13:32;;;;;;;6.30;2.10;;;8.60;99.90;;;;;;5034853;28;20100;-62
2022/05/04 04:15:59;;;;;;;8.05;1.70;;;8.70;99.90;;;;;;5035332;28;20045;-63
2022/05/04 04:18:27;;;;;;;7.65;2.55;;;8.70;99.90;;;;;;5035422;28;20049;-62
2022/05/04 04:23:40;;;;;;;7.03;2.13;;;8.70;99.90;;;;;;5035427;28;20067;-62
2022/05/04 04:26:08;;;;;;;11.32;3.00;;;8.60;99.90;;;;;;5053156;28;20053;-62
2022/05/04 04:28:38;;;;;;;6.10;2.22;;;8.60;99.90;;;;;;5052324;28;20040;-62
2022/05/04 04:31:05;;;;;;;6.90;2.05;;;8.70;99.90;;;;;;5053310;28;20122;-61
2022/05/04 04:33:32;;;;;;;5.28;2.20;;;8.80;99.90;;;;;;5052581;28;20942;-62
2022/05/04 04:36:00;;;;;;;5.25;2.38;;;8.80;99.90;;;;;;5052312;28;20559;-62
2022/05/04 04:38:28;;;;;;;4.90;2.10;;;8.80;99.90;;;;;;5054292;28;20052;-62
2022/05/04 04:40:55;;;;;;;7.53;2.25;;;8.80;99.90;;;;;;5053183;28;20133;-62
2022/05/04 04:43:22;;;;;;;6.88;2.40;;;8.70;99.90;;;;;;5035132;28;20130;-62
2022/05/04 04:45:51;;;;;;;8.80;2.15;;;8.90;99.90;;;;;;5056769;28;20045;-62
2022/05/04 04:48:18;;;;;;;7.72;2.30;;;8.60;99.90;;;;;;5053376;28;20115;-62
2022/05/04 04:50:46;;;;;;;5.43;2.35;;;8.60;99.90;;;;;;5052569;28;20056;-61
2022/05/04 04:53:13;;;;;;;9.60;2.15;;;8.60;99.90;;;;;;5056098;28;20508;-62
2022/05/04 04:55:42;;;;;;;7.38;2.20;;;8.60;99.90;;;;;;5052742;28;20457;-61
2022/05/04 04:58:09;;;;;;;5.72;1.77;;;8.60;99.90;;;;;;5053865;28;20465;-62
2022/05/04 05:00:35;;;;;;;5.80;2.45;;;8.60;99.90;;;;;;5066477;28;20072;-61
2022/05/04 05:03:04;;;;;;;18.23;3.45;;;8.60;99.90;;;;;;5017363;28;20061;-62
2022/05/04 05:05:31;;;;;;;4.38;2.00;;;8.70;99.90;;;;;;5050019;28;20045;-61
2022/05/04 05:07:58;;;;;;;4.68;2.30;;;8.70;99.90;;;;;;5032506;28;20143;-62
2022/05/04 05:10:25;;;;;;;6.43;2.40;;;8.70;99.90;;;;;;5013436;28;20041;-62
2022/05/04 05:12:52;;;;;;;5.55;2.53;;;8.70;99.90;;;;;;5030678;28;20037;-62
2022/05/04 05:18:05;;;;;;;10.48;2.65;;;8.70;99.90;;;;;;5034204;28;20124;-61
2022/05/04 05:20:33;;;;;;;10.57;2.75;;;8.80;99.90;;;;;;5031483;28;20041;-61
2022/05/04 05:23:00;;;;;;;5.45;1.85;;;8.70;99.90;;;;;;5036517;28;20084;-62
2022/05/04 05:25:27;;;;;;;6.28;1.83;;;8.70;99.90;;;;;;5032090;28;20118;-63
2022/05/04 05:27:55;;;;;;;6.38;2.33;;;8.70;99.90;;;;;;5014277;28;20500;-62
2022/05/04 05:30:22;;;;;;;9.65;2.70;;;8.70;99.90;;;;;;5034901;28;20128;-61
2022/05/04 05:32:49;;;;;;;8.85;2.28;;;8.60;99.90;;;;;;5014536;28;20096;-61
2022/05/04 05:35:17;;;;;;;16.65;2.47;;;8.70;99.90;;;;;;5032364;28;20053;-61
2022/05/04 05:37:44;;;;;;;8.00;2.20;;;8.70;99.90;;;;;;5016039;28;20054;-62
2022/05/04 05:40:13;;;;;;;6.97;2.58;;;8.60;99.90;;;;;;5014028;28;20481;-61
2022/05/04 05:42:39;;;;;;;6.53;2.25;;;8.70;99.90;;;;;;5031250;28;20103;-61
2022/05/04 05:45:07;;;;;;;8.45;2.55;;;8.80;99.90;;;;;;5030956;28;20103;-61
2022/05/04 05:47:34;;;;;;;7.60;2.22;;;8.80;99.90;;;;;;5032194;28;20103;-61
2022/05/04 05:50:01;;;;;;;9.25;2.63;;;8.90;99.90;;;;;;5031243;28;20041;-62
2022/05/04 05:52:29;;;;;;;6.22;2.67;;;9.00;99.90;;;;;;5034213;28;20111;-62
2022/05/04 05:54:56;;;;;;;6.78;2.70;;;9.00;99.90;;;;;;5013528;28;20045;-62
2022/05/04 05:57:23;;;;;;;6.95;2.00;;;9.00;99.80;;;;;;5044213;28;20045;-62
2022/05/04 05:59:50;;;;;;;11.15;2.65;;;9.00;99.60;;;;;;5032913;28;20099;-62
2022/05/04 06:02:19;;;;;;;8.23;2.30;;;9.00;99.30;;;;;;5026343;28;20143;-62
2022/05/04 06:04:46;;;;;;;7.97;2.33;;;9.10;99.20;;;;;;5050483;28;20079;-62
2022/05/04 06:07:13;;;;;;;7.68;2.63;;;9.10;99.20;;;;;;5052133;28;20452;-63
2022/05/04 06:09:42;;;;;;;8.00;2.63;;;9.10;99.10;;;;;;5050429;28;20051;-62
2022/05/04 06:12:10;;;;;;;8.60;2.95;;;9.10;99.20;;;;;;5032701;28;20493;-62
2022/05/04 06:14:36;;;;;;;6.15;2.30;;;9.20;99.30;;;;;;5051189;28;20055;-63
2022/05/04 06:17:03;;;;;;;9.32;2.58;;;9.20;99.50;;;;;;5038996;28;20148;-61
2022/05/04 06:19:30;;;;;;;8.52;2.63;;;9.30;99.40;;;;;;5052480;28;20052;-62
2022/05/04 06:21:58;;;;;;;7.45;2.53;;;9.40;99.50;;;;;;5052336;28;20098;-62
2022/05/04 06:24:25;;;;;;;5.57;1.98;;;9.50;99.30;;;;;;5080646;28;20059;-62
2022/05/04 06:26:53;;;;;;;5.47;2.58;;;9.50;99.00;;;;;;5068937;28;20052;-62
2022/05/04 06:29:20;;;;;;;9.43;2.35;;;9.50;98.60;;;;;;5075194;28;20113;-62
2022/05/04 06:34:31;;;;;;;6.30;2.20;;;9.60;98.70;;;;;;5071896;28;20518;-62
2022/05/04 06:36:58;;;;;;;5.93;2.05;;;9.60;98.80;;;;;;5053517;28;20094;-61
2022/05/04 06:39:25;;;;;;;5.22;2.22;;;9.80;98.60;;;;;;5085165;28;20043;-61
2022/05/04 06:41:53;;;;;;;6.15;2.15;;;9.80;98.30;;;;;;5073214;28;20090;-62
2022/05/04 06:44:20;;;;;;;4.75;1.77;;;9.90;98.30;;;;;;5054427;28;20052;-62
2022/05/04 06:46:47;;;;;;;3.92;1.83;;;10.00;97.80;;;;;;5071856;28;20053;-62
2022/05/04 06:49:14;;;;;;;9.50;2.47;;;10.00;97.50;;;;;;5050635;28;20509;-62
2022/05/04 06:51:40;;;;;;;8.02;2.22;;;10.10;97.10;;;;;;5034157;28;20049;-63
2022/05/04 06:54:08;;;;;;;4.53;2.28;;;10.00;96.60;;;;;;5062607;28;20102;-62
2022/05/04 06:56:35;;;;;;;7.30;1.88;;;10.10;96.50;;;;;;5055020;28;20045;-62
2022/05/04 06:59:03;;;;;;;5.53;2.58;;;10.20;96.70;;;;;;5054453;28;20073;-62
2022/05/04 07:01:30;;;;;;;5.95;1.88;;;10.20;96.50;;;;;;5071732;28;20114;-63
2022/05/04 07:03:57;;;;;;;7.10;2.20;;;10.10;96.20;;;;;;5054326;28;20052;-62
2022/05/04 07:06:24;;;;;;;9.27;2.25;;;10.10;96.30;;;;;;5052823;28;20103;-63
2022/05/04 07:08:52;;;;;;;9.60;2.17;;;10.20;96.30;;;;;;5054049;28;20106;-62
2022/05/04 07:11:18;;;;;;;5.97;2.10;;;10.30;96.20;;;;;;5072159;28;20056;-62
2022/05/04 07:13:45;;;;;;;6.78;1.95;;;10.50;96.30;;;;;;5054173;28;20045;-61
2022/05/04 07:16:14;;;;;;;7.65;2.75;;;10.60;96.20;;;;;;5070953;28;20504;-61
2022/05/04 07:18:41;;;;;;;3.95;1.92;;;10.60;95.60;;;;;;5071113;28;20131;-62
2022/05/04 07:21:08;;;;;;;4.25;2.30;;;10.70;95.70;;;;;;5072290;28;20052;-62
2022/05/04 07:23:34;;;;;;;12.10;2.53;;;10.90;95.80;;;;;;5074223;28;20071;-62
2022/05/04 07:26:01;;;;;;;8.13;1.95;;;10.80;95.20;;;;;;5075481;28;20044;-62
2022/05/04 07:28:28;;;;;;;6.97;2.15;;;10.80;94.60;;;;;;5075619;28;20101;-62
2022/05/04 07:30:55;;;;;;;5.57;2.03;;;11.00;94.90;;;;;;5074845;28;20048;-62
2022/05/04 07:33:24;;;;;;;7.60;1.88;;;11.10;94.50;;;;;;5075495;28;20561;-62
2022/05/04 07:35:51;;;;;;;5.40;2.10;;;11.20;93.90;;;;;;5057482;28;20055;-62
2022/05/04 07:38:17;;;;;;;7.75;1.83;;;11.30;93.80;;;;;;5075051;28;20514;-62
2022/05/04 07:43:29;;;;;;;8.38;2.60;;;11.70;93.70;;;;;;5054661;28;20172;-62
2022/05/04 07:45:56;;;;;;;4.90;1.98;;;11.90;93.40;;;;;;5037718;28;20061;-62
2022/05/04 07:48:24;;;;;;;7.05;1.90;;;12.00;92.90;;;;;;5055459;28;20194;-62
2022/05/04 07:50:51;;;;;;;6.40;2.17;;;12.20;92.40;;;;;;5054729;28;20103;-61
2022/05/04 07:53:18;;;;;;;13.73;2.53;;;12.20;92.50;;;;;;5056278;28;20048;-63
2022/05/04 07:55:45;;;;;;;7.38;2.72;;;12.40;92.30;;;;;;5037324;28;20049;-63
2022/05/04 07:58:12;;;;;;;7.50;2.17;;;12.30;92.30;;;;;;5036968;28;20111;-63
2022/05/04 08:06:14;;;;;;;;;;;11.90;92.20;;;;;;5044033;28;20098;-62
2022/05/04 08:08:41;;;;;;;6.63;2.25;;;11.90;92.10;;;;;;5053041;28;19924;-62
2022/05/04 08:11:08;;;;;;;5.30;2.03;;;12.00;92.40;;;;;;5037046;28;20118;-61
2022/05/04 08:13:35;;;;;;;8.43;2.60;;;12.00;92.40;;;;;;5054187;28;20158;-62
2022/05/04 08:16:02;;;;;;;6.20;2.53;;;11.90;92.10;;;;;;5054452;28;20052;-62
2022/05/04 08:18:30;;;;;;;5.40;2.33;;;12.00;91.90;;;;;;5036333;28;20114;-62
2022/05/04 08:20:57;;;;;;;8.32;2.80;;;12.30;91.80;;;;;;5037141;28;20053;-62
2022/05/04 08:23:24;;;;;;;5.50;2.25;;;12.30;91.50;;;;;;5051161;28;20073;-63
2022/05/04 08:25:51;;;;;;;5.43;2.53;;;12.30;91.70;;;;;;5049129;28;20055;-63
2022/05/04 08:28:19;;;;;;;6.70;2.10;;;12.50;91.60;;;;;;5034849;28;20053;-62
2022/05/04 08:30:46;;;;;;;8.32;2.28;;;12.50;91.70;;;;;;5061624;28;20575;-63
2022/05/04 08:33:13;;;;;;;10.10;2.40;;;12.60;91.50;;;;;;5055894;28;20060;-62
2022/05/04 08:35:41;;;;;;;8.82;2.50;;;12.60;91.10;;;;;;5074257;28;20094;-63
2022/05/04 08:38:08;;;;;;;12.48;2.60;;;12.50;90.70;;;;;;5056643;28;20056;-62
2022/05/04 08:40:35;;;;;;;5.50;2.58;;;12.60;90.80;;;;;;5040103;28;20108;-62
2022/05/04 08:43:05;;;;;;;8.15;2.35;;;12.70;90.80;;;;;;5034185;28;20497;-63
2022/05/04 08:45:36;;;;;;;5.97;2.28;;;12.60;90.80;;;;;;5034567;28;20390;-62
2022/05/04 08:48:04;;;;;;;8.65;2.25;;;12.70;90.80;;;;;;5033653;28;20053;-62
2022/05/04 08:50:33;;;;;;;8.60;2.28;;;12.70;90.80;;;;;;5016670;28;20513;-62
2022/05/04 08:53:03;;;;;;;7.38;2.15;;;12.80;91.00;;;;;;5016285;28;20057;-62
2022/05/04 08:55:30;;;;;;;7.03;1.77;;;12.80;91.00;;;;;;5033867;28;20045;-61
2022/05/04 08:57:57;;;;;;;14.48;2.55;;;12.90;90.70;;;;;;5034077;28;20099;-63
2022/05/04 09:00:24;;;;;;;9.50;2.05;;;12.90;90.20;;;;;;5033993;28;20049;-61
2022/05/04 09:02:51;;;;;;;6.45;2.10;;;12.80;89.90;;;;;;5048779;28;20060;-62
2022/05/04 09:05:20;;;;;;;6.90;2.30;;;12.80;90.00;;;;;;5044492;28;20106;-62
2022/05/04 09:07:49;;;;;;;9.02;3.05;;;12.90;90.20;;;;;;5055090;28;20064;-62
2022/05/04 09:10:20;;;;;;;5.57;2.00;;;12.80;90.30;;;;;;5073754;28;20044;-63
2022/05/04 09:12:48;;;;;;;7.00;2.10;;;12.70;90.30;;;;;;5043583;28;20044;-62
2022/05/04 09:15:22;;;;;;;5.28;2.17;;;12.80;90.30;;;;;;5044877;28;20114;-62
2022/05/04 09:17:59;;;;;;;6.55;2.20;;;12.80;90.00;;;;;;5034036;28;20053;-62
2022/05/04 09:20:48;;;;;;;8.57;2.58;;;12.90;88.80;;;;;;5052477;28;20492;-62
2022/05/04 09:23:18;;;;;;;5.95;1.70;;;13.10;89.80;;;;;;5052396;28;20144;-62
2022/05/04 09:25:49;;;;;;;6.65;2.20;;;13.30;90.20;;;;;;5038960;28;20289;-62
2022/05/04 09:28:17;;;;;;;7.53;2.25;;;13.40;87.70;;;;;;5034857;28;20048;-62
2022/05/04 09:30:46;;;;;;;6.43;2.30;;;13.60;88.50;;;;;;5054653;28;20092;-63
2022/05/04 09:33:16;;;;;;;5.85;2.10;;;13.70;87.80;;;;;;5052381;28;20045;-62
2022/05/04 09:35:43;;;;;;;6.90;1.90;;;14.00;87.60;;;;;;5050994;28;20443;-63
2022/05/04 09:46:39;;;;;;;5.28;2.28;;;14.10;85.50;;;;;;5037539;28;20258;-63
2022/05/04 09:49:13;;;;;;;;;;;14.00;86.00;;;;;;5034907;28;20066;-62
2022/05/04 09:51:40;;;;;;;4.85;1.88;;;13.80;82.80;;;;;;5037877;28;20407;-62
2022/05/04 09:54:21;;;;;;;6.43;2.35;;;14.10;84.60;;;;;;5060683;28;20056;-63
2022/05/04 09:56:50;;;;;;;;;;;14.10;83.70;;;;;;5052028;28;20053;-63
2022/05/04 09:59:18;;;;;;;6.00;2.17;;;13.90;82.60;;;;;;5051729;28;20383;-61
2022/05/04 10:01:45;;;;;;;5.97;2.15;;;14.10;84.50;;;;;;5051255;28;20060;-63
2022/05/04 10:04:12;;;;;;;6.00;2.15;;;14.20;84.40;;;;;;5051332;28;20356;-61
2022/05/04 10:06:40;;;;;;;4.15;2.15;;;14.50;84.40;;;;;;5048074;28;20077;-62
2022/05/04 10:09:08;;;;;;;4.65;1.77;;;14.50;84.10;;;;;;5044986;28;20106;-61
2022/05/04 10:11:36;;;;;;;4.07;1.92;;;14.90;83.30;;;;;;5049510;28;20512;-62
2022/05/04 10:14:07;;;;;;;7.13;2.40;;;14.80;83.00;;;;;;5034322;28;20115;-62
2022/05/04 10:16:41;;;;;;;9.25;2.15;;;15.00;82.30;;;;;;5051766;28;20044;-62
2022/05/04 10:19:14;;;;;;;7.28;2.40;;;15.10;81.20;;;;;;5051357;28;20126;-62
2022/05/04 10:21:43;;;;;;;6.28;2.00;;;15.20;81.70;;;;;;5044969;28;20088;-63
2022/05/04 10:24:11;;;;;;;5.95;1.95;;;15.20;81.40;;;;;;5061248;28;20052;-63
2022/05/04 10:26:39;;;;;;;9.57;2.25;;;15.50;81.30;;;;;;5051300;28;20111;-63
2022/05/04 10:32:32;;;;;;;4.18;1.90;;;16.00;77.90;;;;;;5070359;28;20141;-63
2022/05/04 10:35:14;;;;;;;6.50;2.08;;;16.50;76.90;;;;;;5053940;28;20048;-63
2022/05/04 10:38:21;;;;;;;7.95;2.63;;;16.90;74.70;;;;;;5072725;28;20044;-63
2022/05/04 10:40:54;;;;;;;6.20;2.42;;;17.10;73.10;;;;;;5072089;28;20135;-64
2022/05/04 10:43:37;;;;;;;7.40;2.47;;;17.30;74.60;;;;;;5054663;28;20057;-62
2022/05/04 10:46:10;;;;;;;6.70;2.15;;;17.80;73.10;;;;;;5072253;28;20052;-63
2022/05/04 10:48:43;;;;;;;7.15;2.55;;;17.90;70.90;;;;;;5072389;28;20044;-63
2022/05/04 10:51:18;;;;;;;6.90;1.95;;;18.00;70.70;;;;;;5054562;28;20131;-63
2022/05/04 10:53:47;;;;;;;4.45;2.30;;;17.50;71.20;;;;;;5071671;28;20128;-63
2022/05/04 10:56:17;;;;;;;5.43;1.80;;;17.80;71.80;;;;;;5055265;28;20049;-63
2022/05/04 10:58:46;;;;;;;5.00;2.10;;;19.00;71.40;;;;;;5058629;28;20060;-64
2022/05/04 11:01:17;;;;;;;7.67;2.40;;;19.00;69.90;;;;;;5075058;28;20457;-64
2022/05/04 11:03:58;;;;;;;6.43;2.05;;;19.50;68.60;;;;;;5075978;28;20045;-63
2022/05/04 11:06:30;;;;;;;12.15;2.40;;;19.30;66.90;;;;;;5076157;28;20488;-63
2022/05/04 11:08:59;;;;;;;6.82;2.00;;;19.20;67.60;;;;;;5057910;28;20052;-64
2022/05/04 11:11:27;;;;;;;6.85;2.38;;;18.80;68.40;;;;;;5058401;28;20059;-63
2022/05/04 11:13:55;;;;;;;8.18;2.63;;;18.70;68.90;;;;;;5057821;28;20500;-62
2022/05/04 11:16:24;;;;;;;4.85;2.00;;;18.70;69.00;;;;;;5057705;28;20356;-63
2022/05/04 11:18:51;;;;;;;8.65;2.28;;;18.40;68.60;;;;;;5075740;28;20127;-63
2022/05/04 11:21:19;;;;;;;6.10;2.42;;;18.00;69.20;;;;;;5075329;28;20098;-63
2022/05/04 11:23:47;;;;;;;8.15;2.47;;;17.60;69.70;;;;;;5075631;28;20048;-63
2022/05/04 11:26:18;;;;;;;4.88;2.10;;;17.00;69.80;;;;;;5075894;28;20416;-62
2022/05/04 11:28:45;;;;;;;7.43;2.42;;;17.00;69.80;;;;;;5075145;28;20055;-63
2022/05/04 11:31:12;;;;;;;4.53;1.60;;;17.10;70.30;;;;;;5075166;28;20109;-63
2022/05/04 11:33:43;;;;;;;5.20;2.10;;;18.00;70.20;;;;;;5062574;28;20052;-63
2022/05/04 11:36:10;;;;;;;6.10;1.80;;;19.00;68.10;;;;;;5074985;28;20059;-63
2022/05/04 11:38:37;;;;;;;5.65;2.35;;;19.40;67.40;;;;;;5057745;28;20565;-63
2022/05/04 11:41:04;;;;;;;6.00;1.67;;;20.40;66.30;;;;;;5075340;28;20114;-63
2022/05/04 11:43:34;;;;;;;6.60;2.45;;;20.70;65.50;;;;;;5074660;28;20441;-64
2022/05/04 11:46:06;;;;;;;6.47;1.73;;;20.70;64.40;;;;;;5075597;28;20059;-63
2022/05/04 11:48:34;;;;;;;6.53;2.08;;;20.80;64.40;;;;;;5075081;28;20056;-63
2022/05/04 11:51:04;;;;;;;;;;;21.20;63.60;;;;;;5057145;28;20054;-63
2022/05/04 11:53:31;;;;;;;5.90;2.33;;;21.20;62.40;;;;;;5074968;28;19970;-63
2022/05/04 11:55:59;;;;;;;9.13;2.88;;;21.40;63.20;;;;;;5057331;28;20056;-64
2022/05/04 11:58:27;;;;;;;3.80;1.50;;;21.90;62.40;;;;;;5074517;28;20058;-64
2022/05/04 12:00:55;;;;;;;5.07;1.90;;;22.20;61.50;;;;;;5075273;28;20048;-63
2022/05/04 12:03:23;;;;;;;5.68;1.92;;;21.90;60.80;;;;;;5056342;28;20060;-63
2022/05/04 12:05:51;;;;;;;7.07;2.60;;;21.40;61.10;;;;;;5056595;28;20385;-63
2022/05/04 12:08:19;;;;;;;7.15;2.28;;;21.30;61.40;;;;;;5074130;28;20114;-63
2022/05/04 12:10:48;;;;;;;4.82;1.88;;;21.30;61.20;;;;;;5056403;28;20102;-63
2022/05/04 12:13:16;;;;;;;7.03;2.20;;;21.20;61.10;;;;;;5074732;28;20158;-63
2022/05/04 12:15:43;;;;;;;5.28;1.90;;;21.00;61.00;;;;;;5074827;28;20044;-64
2022/05/04 12:18:13;;;;;;;8.85;2.42;;;21.10;61.70;;;;;;5074008;28;20048;-63
2022/05/04 12:20:40;;;;;;;5.30;1.88;;;21.20;61.20;;;;;;5056976;28;20492;-64
2022/05/04 12:23:07;;;;;;;6.72;2.08;;;21.80;61.20;;;;;;5074377;28;20110;-63
2022/05/04 12:25:35;;;;;;;6.95;2.28;;;22.50;59.90;;;;;;5056336;28;20488;-64
2022/05/04 12:28:02;;;;;;;5.18;2.33;;;22.70;59.90;;;;;;5074752;28;20098;-64
2022/05/04 12:33:14;;;;;;;7.57;2.42;;;22.20;59.60;;;;;;5078834;28;20070;-63
2022/05/04 12:35:43;;;;;;;5.30;2.30;;;23.00;59.30;;;;;;5074661;28;20052;-64
2022/05/04 12:38:13;;;;;;;8.02;2.50;;;23.40;58.90;;;;;;5056542;28;20053;-64
2022/05/04 12:40:41;;;;;;;7.22;2.58;;;23.30;58.50;;;;;;5073753;28;20052;-64
2022/05/04 12:43:08;;;;;;;7.82;2.13;;;24.10;58.20;;;;;;5074066;28;20106;-64
2022/05/04 12:45:37;;;;;;;4.28;1.95;;;24.10;57.40;;;;;;5074143;28;20048;-64
2022/05/04 12:48:07;;;;;;;6.65;2.28;;;24.70;57.60;;;;;;5073675;28;20041;-63
2022/05/04 12:50:35;;;;;;;5.70;2.15;;;24.40;56.80;;;;;;5074361;28;20110;-65
2022/05/04 12:53:02;;;;;;;5.85;2.20;;;24.30;56.30;;;;;;5073394;28;20571;-63
2022/05/04 12:58:16;;;;;;;5.57;2.30;;;23.30;56.60;;;;;;5073930;28;20055;-64
2022/05/04 13:00:43;;;;;;;5.95;2.22;;;23.20;57.20;;;;;;5073633;28;20118;-64
2022/05/04 13:03:12;;;;;;;5.75;1.95;;;23.10;56.10;;;;;;5055364;28;20393;-64
2022/05/04 13:05:39;;;;;;;5.03;1.92;;;23.50;56.10;;;;;;5056090;28;20084;-64
2022/05/04 13:08:08;;;;;;;5.72;1.77;;;23.70;55.50;;;;;;5055669;28;20044;-64
2022/05/04 13:10:35;;;;;;;3.70;1.88;;;23.90;55.60;;;;;;5053118;28;20087;-63
2022/05/04 13:13:03;;;;;;;6.03;2.10;;;24.40;56.20;;;;;;5038100;28;20094;-63
2022/05/04 13:15:33;;;;;;;7.32;1.90;;;24.80;55.40;;;;;;5034752;28;20098;-63
2022/05/04 13:18:02;;;;;;;6.90;1.98;;;24.80;53.80;;;;;;5053624;28;20045;-64
2022/05/04 13:20:29;;;;;;;6.13;2.45;;;25.00;54.70;;;;;;5051795;28;20056;-64
2022/05/04 13:22:57;;;;;;;5.30;2.60;;;24.30;54.70;;;;;;5051769;28;20049;-64
2022/05/04 13:25:23;;;;;;;6.68;2.40;;;24.80;54.00;;;;;;5038874;28;20053;-64
2022/05/04 13:27:50;;;;;;;5.28;2.13;;;24.40;53.90;;;;;;5054992;28;20079;-63
2022/05/04 13:30:17;;;;;;;5.20;2.10;;;24.90;54.30;;;;;;5050244;28;20491;-64
2022/05/04 13:32:45;;;;;;;5.85;2.35;;;24.60;53.80;;;;;;5036846;28;20049;-63
2022/05/04 13:35:12;;;;;;;5.13;1.92;;;23.90;54.30;;;;;;5056033;28;20075;-64
2022/05/04 13:37:39;;;;;;;4.07;2.15;;;23.80;54.70;;;;;;5038238;28;20076;-63